createdAt,value
2022-08-14T00:03:12.320Z,4.0504
2022-08-14T00:08:46.423Z,4.0504
2022-08-14T00:13:54.678Z,4.0455
2022-08-14T00:19:22.399Z,4.0455
2022-08-14T00:24:32.055Z,4.0455
2022-08-14T00:29:50.118Z,4.0455
2022-08-14T00:35:04.774Z,4.0455
2022-08-14T00:40:36.469Z,4.0504
2022-08-14T00:45:53.701Z,4.0455
2022-08-14T00:51:03.265Z,4.0455
2022-08-14T00:56:16.559Z,4.0455
2022-08-14T01:01:30.944Z,4.0455
2022-08-14T01:06:48.969Z,4.0455
2022-08-14T01:12:11.857Z,4.0455
2022-08-14T01:17:23.550Z,4.0504
2022-08-14T01:22:43.816Z,4.0406
2022-08-14T01:27:59.865Z,4.0504
2022-08-14T01:33:13.702Z,4.0406
2022-08-14T01:38:28.142Z,4.0406
2022-08-14T01:43:57.009Z,4.0406
2022-08-14T01:49:08.499Z,4.0406
2022-08-14T01:54:34.030Z,4.0406
2022-08-14T01:59:46.308Z,4.0309
2022-08-14T02:04:59.338Z,4.0309
2022-08-14T02:10:27.261Z,4.0309
2022-08-14T02:15:36.042Z,4.0309
2022-08-14T02:20:51.525Z,4.0309
2022-08-14T02:26:31.434Z,4.0309
2022-08-14T02:32:37.495Z,4.0309
2022-08-14T02:37:50.593Z,4.0309
2022-08-14T02:43:11.995Z,4.0309
2022-08-14T02:49:07.357Z,4.0309
2022-08-14T02:54:21.316Z,4.026
2022-08-14T02:59:37.456Z,4.026
2022-08-14T03:04:52.284Z,4.026
2022-08-14T03:10:34.819Z,4.026
2022-08-14T03:15:44.044Z,4.026
2022-08-14T03:20:57.709Z,4.026
2022-08-14T03:26:29.600Z,4.0309
2022-08-14T03:31:47.044Z,4.026
2022-08-14T03:39:27.508Z,4.026
2022-08-14T03:45:48.081Z,4.0211
2022-08-14T03:50:58.961Z,4.0211
2022-08-14T03:56:22.323Z,4.0211
2022-08-14T04:02:09.624Z,4.0211
2022-08-14T04:08:08.712Z,4.0211
2022-08-14T04:13:41.503Z,4.0211
2022-08-14T04:18:56.945Z,4.0211
2022-08-14T04:24:17.965Z,4.0211
2022-08-14T04:29:34.853Z,4.0211
2022-08-14T04:34:53.206Z,4.0211
2022-08-14T04:40:11.745Z,4.0211
2022-08-14T04:45:23.448Z,4.0211
2022-08-14T04:50:54.774Z,4.0211
2022-08-14T04:56:10.896Z,4.0211
2022-08-14T05:01:48.570Z,4.0211
2022-08-14T05:07:00.925Z,4.0162
2022-08-14T05:13:16.554Z,4.0162
2022-08-14T05:19:33.002Z,4.0162
2022-08-14T05:24:38.938Z,4.0162
2022-08-14T05:29:50.944Z,4.0162
2022-08-14T05:35:02.773Z,4.0211
2022-08-14T05:40:15.878Z,4.0211
2022-08-14T05:45:31.610Z,4.0211
2022-08-14T05:50:51.040Z,4.0162
2022-08-14T05:56:03.846Z,4.026
2022-08-14T06:01:15.899Z,4.0162
2022-08-14T06:06:27.861Z,4.0162
2022-08-14T06:11:40.261Z,4.0162
2022-08-14T06:16:54.342Z,4.0211
2022-08-14T06:22:09.362Z,4.0162
2022-08-14T06:27:34.980Z,4.0211
2022-08-14T06:32:45.244Z,4.0162
2022-08-14T06:37:58.044Z,4.026
2022-08-14T06:43:10.867Z,4.0211
2022-08-14T06:48:23.005Z,4.0162
2022-08-14T06:53:35.807Z,4.0162
2022-08-14T06:58:47.763Z,4.0162
2022-08-14T07:04:00.834Z,4.0162
2022-08-14T07:09:24.039Z,4.0162
2022-08-14T07:14:35.473Z,4.0162
2022-08-14T07:19:51.891Z,4.0162
2022-08-14T07:25:09.563Z,4.0162
2022-08-14T07:30:50.574Z,4.0162
2022-08-14T07:36:00.433Z,4.0162
2022-08-14T07:41:17.309Z,4.0162
2022-08-14T07:46:32.646Z,4.0211
2022-08-14T07:51:51.168Z,4.0162
2022-08-14T07:57:26.196Z,4.0162
2022-08-14T08:02:42.527Z,4.0162
2022-08-14T08:07:53.890Z,4.0162
2022-08-14T08:13:06.351Z,4.0162
2022-08-14T08:18:36.322Z,4.0162
2022-08-14T08:23:52.424Z,4.0162
2022-08-14T08:29:11.621Z,4.0162
2022-08-14T08:34:25.376Z,4.0162
2022-08-14T08:40:06.787Z,4.0162
2022-08-14T08:45:19.334Z,4.0162
2022-08-14T08:55:45.547Z,4.0114
2022-08-14T09:00:59.551Z,4.0162
2022-08-14T09:07:12.093Z,4.0162
2022-08-14T09:12:21.750Z,4.0162
2022-08-14T09:17:34.035Z,4.0114
2022-08-14T09:22:51.589Z,4.0162
2022-08-14T09:28:13.654Z,4.0114
2022-08-14T09:33:31.046Z,4.0162
2022-08-14T09:38:48.935Z,4.0114
2022-08-14T09:44:07.277Z,4.0211
2022-08-14T09:49:21.137Z,4.0162
2022-08-14T09:54:33.308Z,4.0162
2022-08-14T09:59:45.801Z,4.0162
2022-08-14T10:04:58.369Z,4.0114
2022-08-14T10:10:24.819Z,4.0114
2022-08-14T10:15:34.695Z,4.0162
2022-08-14T10:20:51.049Z,4.0114
2022-08-14T10:26:02.740Z,4.0162
2022-08-14T10:31:15.273Z,4.0114
2022-08-14T10:37:02.869Z,4.0211
2022-08-14T10:42:21.984Z,4.0114
2022-08-14T10:48:46.201Z,4.0162
2022-08-14T10:53:58.694Z,4.0114
2022-08-14T10:59:13.290Z,4.0162
2022-08-14T11:04:31.534Z,4.0162
2022-08-14T11:09:52.519Z,4.0211
2022-08-14T11:15:05.349Z,4.0309
2022-08-14T11:20:23.937Z,4.0309
2022-08-14T11:30:56.040Z,4.0992
2022-08-14T11:36:20.829Z,4.1431
2022-08-14T11:41:56.499Z,4.1773
2022-08-14T11:47:09.749Z,4.2017
2022-08-14T11:52:22.969Z,4.2017
2022-08-14T12:08:13.829Z,4.148
2022-08-14T12:13:34.960Z,4.1187
2022-08-14T12:18:46.129Z,4.1138
2022-08-14T12:24:03.579Z,4.1919
2022-08-14T12:29:17.014Z,4.1431
2022-08-14T12:34:29.721Z,4.1334
2022-08-14T13:00:25.534Z,4.1285
2022-08-14T13:05:41.306Z,4.1675
2022-08-14T13:26:29.166Z,4.2066
2022-08-14T13:31:44.407Z,4.1968
2022-08-14T13:42:16.388Z,4.1919
2022-08-14T13:47:27.311Z,4.1822
2022-08-14T13:53:04.278Z,4.1724
2022-08-14T13:58:36.362Z,4.1675
2022-08-14T14:03:47.986Z,4.1626
2022-08-14T14:09:00.898Z,4.1578
2022-08-14T14:14:55.353Z,4.148
2022-08-14T14:20:05.530Z,4.1382
2022-08-14T14:25:23.322Z,4.1382
2022-08-14T14:31:06.904Z,4.1334
2022-08-14T14:36:22.095Z,4.1285
2022-08-14T14:41:45.111Z,4.1285
2022-08-14T15:02:37.306Z,4.1285
2022-08-14T15:07:49.243Z,4.1236
2022-08-14T15:13:10.280Z,4.148
2022-08-14T15:23:45.843Z,4.1675
2022-08-14T15:29:07.051Z,4.1724
2022-08-14T15:34:58.077Z,4.1822
2022-08-14T15:40:23.409Z,4.187
2022-08-14T16:06:18.894Z,4.1968
2022-08-14T16:11:54.202Z,4.1968
2022-08-14T16:17:08.375Z,4.2017
2022-08-14T16:23:01.329Z,4.2017
2022-08-14T16:28:08.376Z,4.1968
2022-08-14T16:34:54.708Z,4.1968
2022-08-14T16:40:02.749Z,4.1724
2022-08-14T16:45:14.692Z,4.1724
2022-08-14T16:50:46.235Z,4.1675
2022-08-14T16:55:56.973Z,4.1626
2022-08-14T17:01:29.302Z,4.1675
2022-08-14T17:06:45.870Z,4.1578
2022-08-14T17:12:08.737Z,4.1431
2022-08-14T17:17:40.900Z,4.148
2022-08-14T17:22:55.758Z,4.1382
2022-08-14T17:28:55.460Z,4.1382
2022-08-14T17:34:02.357Z,4.1334
2022-08-14T17:39:40.854Z,4.1285
2022-08-14T17:44:52.490Z,4.1285
2022-08-14T17:51:05.350Z,4.1236
2022-08-14T17:56:18.249Z,4.1187
2022-08-14T18:01:34.603Z,4.1187
2022-08-14T18:08:41.839Z,4.1138
2022-08-14T18:13:54.432Z,4.109
2022-08-14T18:19:06.033Z,4.1138
2022-08-14T18:24:32.536Z,4.109
2022-08-14T18:29:43.484Z,4.1041
2022-08-14T18:34:56.453Z,4.1041
2022-08-14T18:40:14.543Z,4.1041
2022-08-14T18:45:31.925Z,4.0992
2022-08-14T18:50:43.683Z,4.0992
2022-08-14T18:55:55.933Z,4.0992
2022-08-14T19:01:22.699Z,4.0894
2022-08-14T19:06:33.613Z,4.0894
2022-08-14T19:11:51.948Z,4.0894
2022-08-14T19:17:06.803Z,4.0894
2022-08-14T19:22:30.957Z,4.0894
2022-08-14T19:27:54.881Z,4.0846
2022-08-14T19:33:14.879Z,4.0846
2022-08-14T19:38:34.612Z,4.0797
2022-08-14T19:43:58.296Z,4.0797
2022-08-14T19:49:09.442Z,4.0797
2022-08-14T19:54:20.944Z,4.0797
2022-08-14T19:59:59.071Z,4.0797
2022-08-14T20:05:13.105Z,4.0748
2022-08-14T20:12:05.464Z,4.0748
2022-08-14T20:17:43.217Z,4.0699
2022-08-14T20:23:02.199Z,4.0699
2022-08-14T20:28:31.584Z,4.0699
2022-08-14T20:33:50.584Z,4.0699
2022-08-14T20:39:06.889Z,4.0748
2022-08-14T20:44:29.435Z,4.0699
2022-08-14T20:49:40.355Z,4.065
2022-08-14T20:54:52.770Z,4.065
2022-08-14T21:00:05.244Z,4.065
2022-08-14T21:05:20.935Z,4.0699
2022-08-14T21:11:03.740Z,4.065
2022-08-14T21:16:59.644Z,4.065
2022-08-14T21:22:12.771Z,4.0602
2022-08-14T21:27:37.650Z,4.0602
2022-08-14T21:32:59.134Z,4.0602
2022-08-14T21:38:18.836Z,4.0602
2022-08-14T21:43:33.169Z,4.0602
2022-08-14T21:48:46.135Z,4.0602
2022-08-14T21:54:51.174Z,4.0602
2022-08-14T22:00:42.836Z,4.0553
2022-08-14T22:05:49.438Z,4.0553
2022-08-14T22:11:01.231Z,4.0553
2022-08-14T22:17:17.691Z,4.0553
2022-08-14T22:22:26.729Z,4.0504
2022-08-14T22:27:59.602Z,4.0504
2022-08-14T22:33:17.417Z,4.0504
2022-08-14T22:38:50.921Z,4.0504
2022-08-14T22:44:00.290Z,4.0504
2022-08-14T22:50:34.526Z,4.0504
2022-08-14T22:55:39.770Z,4.0455
2022-08-14T23:00:52.088Z,4.0504
2022-08-14T23:07:23.399Z,4.0504
2022-08-14T23:12:30.670Z,4.0455
2022-08-14T23:17:41.821Z,4.0455
2022-08-14T23:22:53.615Z,4.0455
2022-08-14T23:28:06.046Z,4.0455
2022-08-14T23:33:54.050Z,4.0455
2022-08-14T23:39:20.229Z,4.0455
2022-08-14T23:44:30.394Z,4.0455
2022-08-14T23:50:38.880Z,4.0504
2022-08-14T23:55:58.077Z,4.0406
